ESOK/KSD METAR and TAF weather

Enter ICAO airport designator
Station Type Date Time Source
ESOK METAR 2022/11/27 08:20 UTC NOAA

ESOK 270820Z AUTO 10006KT 0200 R03/0600N R21/0550N FG VV002 00/00 Q1026


Station Type Date Time Source
ESOK Decoded METAR 2022/11/27 08:20 UTC NOAA

Karlstad , Sweden (ESOK) 59-26-41N 013-20-15E
Nov 27, 2022 - 03:20 AM EST / 2022.11.27 0820 UTC
Wind: from the E (100 degrees) at 7 MPH (6 KT):0
Visibility: less than 1 mile:0
Sky conditions: obscured
Weather: fog
Temperature: 32 F (0 C)
Windchill: 24 F (-4 C):1
Dew Point: 32 F (0 C)
Relative Humidity: 100%
Pressure (altimeter): 30.30 in. Hg (1026 hPa)
ob: ESOK 270820Z AUTO 10006KT 0200 R03/0600N R21/0550N FG VV002 00/00 Q1026
cycle: 8

Station Type Date Time Source
ESOK TAF 2022/04/07 18:36 UTC NOAA

TAF TAF
AMD ESOK 071731Z 0718/0806 CNL

Example: see airport list